sensor_id;sensor_type;location;lat;lon;timestamp;P1;durP1;ratioP1;P2;durP2;ratioP2
41683;SDS011;27369;52.030;4.586;2022-07-23T00:01:20;7.10;;;3.47;;
41683;SDS011;27369;52.030;4.586;2022-07-23T00:03:46;6.70;;;3.28;;
41683;SDS011;27369;52.030;4.586;2022-07-23T00:06:12;4.50;;;3.30;;
41683;SDS011;27369;52.030;4.586;2022-07-23T00:08:37;9.10;;;3.47;;
41683;SDS011;27369;52.030;4.586;2022-07-23T00:11:03;5.10;;;3.47;;
41683;SDS011;27369;52.030;4.586;2022-07-23T00:13:28;9.35;;;3.90;;
41683;SDS011;27369;52.030;4.586;2022-07-23T00:15:54;6.25;;;3.95;;
41683;SDS011;27369;52.030;4.586;2022-07-23T00:18:20;10.02;;;4.63;;
41683;SDS011;27369;52.030;4.586;2022-07-23T00:20:45;5.07;;;3.95;;
41683;SDS011;27369;52.030;4.586;2022-07-23T00:23:11;7.20;;;4.40;;
41683;SDS011;27369;52.030;4.586;2022-07-23T00:25:36;5.60;;;4.70;;
41683;SDS011;27369;52.030;4.586;2022-07-23T00:28:02;5.90;;;4.70;;
41683;SDS011;27369;52.030;4.586;2022-07-23T00:30:28;8.88;;;5.00;;
41683;SDS011;27369;52.030;4.586;2022-07-23T00:32:56;7.00;;;5.57;;
41683;SDS011;27369;52.030;4.586;2022-07-23T00:35:25;9.15;;;4.88;;
41683;SDS011;27369;52.030;4.586;2022-07-23T00:37:52;9.73;;;5.60;;
41683;SDS011;27369;52.030;4.586;2022-07-23T00:40:18;9.17;;;4.70;;
41683;SDS011;27369;52.030;4.586;2022-07-23T00:42:43;7.65;;;5.15;;
41683;SDS011;27369;52.030;4.586;2022-07-23T00:45:09;10.55;;;5.40;;
41683;SDS011;27369;52.030;4.586;2022-07-23T00:47:35;8.68;;;5.57;;
41683;SDS011;27369;52.030;4.586;2022-07-23T00:50:01;11.75;;;5.32;;
41683;SDS011;27369;52.030;4.586;2022-07-23T00:52:27;7.15;;;4.85;;
41683;SDS011;27369;52.030;4.586;2022-07-23T00:54:53;11.90;;;6.30;;
41683;SDS011;27369;52.030;4.586;2022-07-23T00:57:18;7.05;;;4.57;;
41683;SDS011;27369;52.030;4.586;2022-07-23T00:59:43;7.28;;;5.25;;
41683;SDS011;27369;52.030;4.586;2022-07-23T01:02:09;6.85;;;5.10;;
41683;SDS011;27369;52.030;4.586;2022-07-23T01:04:34;8.38;;;5.32;;
41683;SDS011;27369;52.030;4.586;2022-07-23T01:07:00;10.27;;;5.43;;
41683;SDS011;27369;52.030;4.586;2022-07-23T01:09:26;7.88;;;5.25;;
41683;SDS011;27369;52.030;4.586;2022-07-23T01:11:51;8.65;;;6.65;;
41683;SDS011;27369;52.030;4.586;2022-07-23T01:14:19;9.18;;;6.90;;
41683;SDS011;27369;52.030;4.586;2022-07-23T01:16:46;9.77;;;6.60;;
41683;SDS011;27369;52.030;4.586;2022-07-23T01:19:13;10.48;;;6.32;;
41683;SDS011;27369;52.030;4.586;2022-07-23T01:21:40;9.27;;;6.43;;
41683;SDS011;27369;52.030;4.586;2022-07-23T01:24:08;9.77;;;6.25;;
41683;SDS011;27369;52.030;4.586;2022-07-23T01:26:35;7.57;;;6.18;;
41683;SDS011;27369;52.030;4.586;2022-07-23T01:29:00;10.07;;;5.90;;
41683;SDS011;27369;52.030;4.586;2022-07-23T01:31:26;6.88;;;5.93;;
41683;SDS011;27369;52.030;4.586;2022-07-23T01:33:52;9.80;;;5.43;;
41683;SDS011;27369;52.030;4.586;2022-07-23T01:36:17;8.10;;;5.10;;
41683;SDS011;27369;52.030;4.586;2022-07-23T01:38:43;9.98;;;5.68;;
41683;SDS011;27369;52.030;4.586;2022-07-23T01:41:08;9.13;;;5.30;;
41683;SDS011;27369;52.030;4.586;2022-07-23T01:43:34;9.98;;;5.88;;
41683;SDS011;27369;52.030;4.586;2022-07-23T01:45:59;8.10;;;5.75;;
41683;SDS011;27369;52.030;4.586;2022-07-23T01:48:24;7.72;;;5.50;;
41683;SDS011;27369;52.030;4.586;2022-07-23T01:50:50;9.98;;;5.30;;
41683;SDS011;27369;52.030;4.586;2022-07-23T01:53:16;15.10;;;5.32;;
41683;SDS011;27369;52.030;4.586;2022-07-23T01:55:41;8.63;;;5.30;;
41683;SDS011;27369;52.030;4.586;2022-07-23T01:58:07;10.50;;;5.43;;
41683;SDS011;27369;52.030;4.586;2022-07-23T02:00:32;10.77;;;5.18;;
41683;SDS011;27369;52.030;4.586;2022-07-23T02:02:58;10.35;;;5.47;;
41683;SDS011;27369;52.030;4.586;2022-07-23T02:05:24;7.25;;;5.00;;
41683;SDS011;27369;52.030;4.586;2022-07-23T02:07:50;13.18;;;4.90;;
41683;SDS011;27369;52.030;4.586;2022-07-23T02:10:16;11.38;;;5.13;;
41683;SDS011;27369;52.030;4.586;2022-07-23T02:12:41;7.43;;;5.43;;
41683;SDS011;27369;52.030;4.586;2022-07-23T02:15:07;7.22;;;5.07;;
41683;SDS011;27369;52.030;4.586;2022-07-23T02:17:32;9.05;;;5.63;;
41683;SDS011;27369;52.030;4.586;2022-07-23T02:19:58;9.55;;;5.80;;
41683;SDS011;27369;52.030;4.586;2022-07-23T02:22:23;9.98;;;5.50;;
41683;SDS011;27369;52.030;4.586;2022-07-23T02:24:49;7.35;;;6.55;;
41683;SDS011;27369;52.030;4.586;2022-07-23T02:27:14;9.18;;;6.60;;
41683;SDS011;27369;52.030;4.586;2022-07-23T02:29:40;8.93;;;6.53;;
41683;SDS011;27369;52.030;4.586;2022-07-23T02:32:05;9.23;;;6.28;;
41683;SDS011;27369;52.030;4.586;2022-07-23T02:34:30;10.30;;;7.78;;
41683;SDS011;27369;52.030;4.586;2022-07-23T02:36:56;10.05;;;7.15;;
41683;SDS011;27369;52.030;4.586;2022-07-23T02:39:21;10.27;;;7.25;;
41683;SDS011;27369;52.030;4.586;2022-07-23T02:41:47;13.35;;;7.75;;
41683;SDS011;27369;52.030;4.586;2022-07-23T02:44:12;9.90;;;7.13;;
41683;SDS011;27369;52.030;4.586;2022-07-23T02:46:37;7.90;;;6.70;;
41683;SDS011;27369;52.030;4.586;2022-07-23T02:49:03;9.05;;;6.28;;
41683;SDS011;27369;52.030;4.586;2022-07-23T02:53:55;9.87;;;6.47;;
41683;SDS011;27369;52.030;4.586;2022-07-23T02:56:20;8.35;;;6.22;;
41683;SDS011;27369;52.030;4.586;2022-07-23T02:58:45;9.48;;;6.55;;
41683;SDS011;27369;52.030;4.586;2022-07-23T03:01:11;9.80;;;5.63;;
41683;SDS011;27369;52.030;4.586;2022-07-23T03:03:36;10.65;;;6.45;;
41683;SDS011;27369;52.030;4.586;2022-07-23T03:06:02;8.00;;;6.13;;
41683;SDS011;27369;52.030;4.586;2022-07-23T03:08:27;9.57;;;6.90;;
41683;SDS011;27369;52.030;4.586;2022-07-23T03:10:53;12.95;;;6.75;;
41683;SDS011;27369;52.030;4.586;2022-07-23T03:13:18;9.00;;;7.88;;
41683;SDS011;27369;52.030;4.586;2022-07-23T03:15:43;12.73;;;7.18;;
41683;SDS011;27369;52.030;4.586;2022-07-23T03:18:09;12.85;;;7.53;;
41683;SDS011;27369;52.030;4.586;2022-07-23T03:20:34;9.65;;;7.88;;
41683;SDS011;27369;52.030;4.586;2022-07-23T03:23:00;10.90;;;7.93;;
41683;SDS011;27369;52.030;4.586;2022-07-23T03:25:25;10.48;;;7.85;;
41683;SDS011;27369;52.030;4.586;2022-07-23T03:27:50;10.82;;;7.22;;
41683;SDS011;27369;52.030;4.586;2022-07-23T03:30:16;14.23;;;8.18;;
41683;SDS011;27369;52.030;4.586;2022-07-23T03:32:41;9.10;;;7.13;;
41683;SDS011;27369;52.030;4.586;2022-07-23T03:35:07;12.07;;;7.40;;
41683;SDS011;27369;52.030;4.586;2022-07-23T03:37:32;10.02;;;8.10;;
41683;SDS011;27369;52.030;4.586;2022-07-23T03:39:58;9.60;;;7.25;;
41683;SDS011;27369;52.030;4.586;2022-07-23T03:42:23;9.57;;;7.07;;
41683;SDS011;27369;52.030;4.586;2022-07-23T03:44:49;7.82;;;7.03;;
41683;SDS011;27369;52.030;4.586;2022-07-23T03:47:14;7.38;;;6.68;;
41683;SDS011;27369;52.030;4.586;2022-07-23T03:49:41;13.98;;;7.13;;
41683;SDS011;27369;52.030;4.586;2022-07-23T03:52:07;12.60;;;6.78;;
41683;SDS011;27369;52.030;4.586;2022-07-23T03:54:33;10.73;;;6.95;;
41683;SDS011;27369;52.030;4.586;2022-07-23T03:56:58;9.20;;;7.18;;
41683;SDS011;27369;52.030;4.586;2022-07-23T03:59:24;7.30;;;6.55;;
41683;SDS011;27369;52.030;4.586;2022-07-23T04:01:50;10.82;;;7.13;;
41683;SDS011;27369;52.030;4.586;2022-07-23T04:04:16;11.55;;;6.80;;
41683;SDS011;27369;52.030;4.586;2022-07-23T04:06:42;10.02;;;7.07;;
41683;SDS011;27369;52.030;4.586;2022-07-23T04:09:07;10.32;;;7.22;;
41683;SDS011;27369;52.030;4.586;2022-07-23T04:11:32;10.07;;;7.90;;
41683;SDS011;27369;52.030;4.586;2022-07-23T04:13:58;13.90;;;8.32;;
41683;SDS011;27369;52.030;4.586;2022-07-23T04:16:23;12.10;;;7.13;;
41683;SDS011;27369;52.030;4.586;2022-07-23T04:18:49;17.63;;;6.82;;
41683;SDS011;27369;52.030;4.586;2022-07-23T04:21:14;18.63;;;7.95;;
41683;SDS011;27369;52.030;4.586;2022-07-23T04:23:39;11.43;;;7.57;;
41683;SDS011;27369;52.030;4.586;2022-07-23T04:26:05;18.65;;;8.50;;
41683;SDS011;27369;52.030;4.586;2022-07-23T04:28:30;16.33;;;7.63;;
41683;SDS011;27369;52.030;4.586;2022-07-23T04:30:56;14.10;;;7.18;;
41683;SDS011;27369;52.030;4.586;2022-07-23T04:33:22;10.05;;;7.25;;
41683;SDS011;27369;52.030;4.586;2022-07-23T04:35:48;13.95;;;7.00;;
41683;SDS011;27369;52.030;4.586;2022-07-23T04:38:13;7.63;;;6.78;;
41683;SDS011;27369;52.030;4.586;2022-07-23T04:40:39;13.82;;;7.35;;
41683;SDS011;27369;52.030;4.586;2022-07-23T04:43:04;8.35;;;7.18;;
41683;SDS011;27369;52.030;4.586;2022-07-23T04:45:30;11.90;;;8.13;;
41683;SDS011;27369;52.030;4.586;2022-07-23T04:47:55;12.73;;;7.40;;
41683;SDS011;27369;52.030;4.586;2022-07-23T04:50:21;12.73;;;8.13;;
41683;SDS011;27369;52.030;4.586;2022-07-23T04:52:50;15.02;;;8.57;;
41683;SDS011;27369;52.030;4.586;2022-07-23T04:55:16;15.02;;;7.63;;
41683;SDS011;27369;52.030;4.586;2022-07-23T04:57:41;11.90;;;8.60;;
41683;SDS011;27369;52.030;4.586;2022-07-23T05:00:07;13.63;;;8.38;;
41683;SDS011;27369;52.030;4.586;2022-07-23T05:02:34;14.00;;;8.20;;
41683;SDS011;27369;52.030;4.586;2022-07-23T05:04:59;10.95;;;8.45;;
41683;SDS011;27369;52.030;4.586;2022-07-23T05:07:24;13.30;;;7.80;;
41683;SDS011;27369;52.030;4.586;2022-07-23T05:09:50;13.07;;;8.45;;
41683;SDS011;27369;52.030;4.586;2022-07-23T05:12:15;11.43;;;8.68;;
41683;SDS011;27369;52.030;4.586;2022-07-23T05:14:41;10.35;;;7.50;;
41683;SDS011;27369;52.030;4.586;2022-07-23T05:17:07;10.10;;;8.30;;
41683;SDS011;27369;52.030;4.586;2022-07-23T05:19:33;13.25;;;7.35;;
41683;SDS011;27369;52.030;4.586;2022-07-23T05:21:59;14.43;;;7.88;;
41683;SDS011;27369;52.030;4.586;2022-07-23T05:24:24;11.82;;;7.43;;
41683;SDS011;27369;52.030;4.586;2022-07-23T05:26:50;13.07;;;7.57;;
41683;SDS011;27369;52.030;4.586;2022-07-23T05:29:15;11.50;;;7.75;;
41683;SDS011;27369;52.030;4.586;2022-07-23T05:31:40;12.18;;;7.47;;
41683;SDS011;27369;52.030;4.586;2022-07-23T05:34:06;11.38;;;7.75;;
41683;SDS011;27369;52.030;4.586;2022-07-23T05:36:32;10.68;;;7.35;;
41683;SDS011;27369;52.030;4.586;2022-07-23T05:38:57;9.40;;;7.03;;
41683;SDS011;27369;52.030;4.586;2022-07-23T05:41:23;12.85;;;7.57;;
41683;SDS011;27369;52.030;4.586;2022-07-23T05:43:48;9.57;;;7.15;;
41683;SDS011;27369;52.030;4.586;2022-07-23T05:46:14;9.60;;;7.93;;
41683;SDS011;27369;52.030;4.586;2022-07-23T05:48:39;8.45;;;6.72;;
41683;SDS011;27369;52.030;4.586;2022-07-23T05:51:06;10.68;;;7.88;;
41683;SDS011;27369;52.030;4.586;2022-07-23T05:53:32;9.27;;;7.05;;
41683;SDS011;27369;52.030;4.586;2022-07-23T05:55:59;7.90;;;5.95;;
41683;SDS011;27369;52.030;4.586;2022-07-23T05:58:24;9.23;;;5.97;;
41683;SDS011;27369;52.030;4.586;2022-07-23T06:00:50;7.13;;;5.82;;
41683;SDS011;27369;52.030;4.586;2022-07-23T06:03:15;9.77;;;5.77;;
41683;SDS011;27369;52.030;4.586;2022-07-23T06:05:40;7.82;;;5.53;;
41683;SDS011;27369;52.030;4.586;2022-07-23T06:08:06;8.57;;;5.72;;
41683;SDS011;27369;52.030;4.586;2022-07-23T06:10:31;7.53;;;5.03;;
41683;SDS011;27369;52.030;4.586;2022-07-23T06:12:57;8.93;;;5.82;;
41683;SDS011;27369;52.030;4.586;2022-07-23T06:15:22;7.60;;;5.60;;
41683;SDS011;27369;52.030;4.586;2022-07-23T06:17:47;8.77;;;6.28;;
41683;SDS011;27369;52.030;4.586;2022-07-23T06:20:13;9.33;;;5.03;;
41683;SDS011;27369;52.030;4.586;2022-07-23T06:22:38;6.20;;;4.47;;
41683;SDS011;27369;52.030;4.586;2022-07-23T06:25:04;8.93;;;5.18;;
41683;SDS011;27369;52.030;4.586;2022-07-23T06:27:30;5.80;;;4.43;;
41683;SDS011;27369;52.030;4.586;2022-07-23T06:29:55;8.60;;;4.77;;
41683;SDS011;27369;52.030;4.586;2022-07-23T06:32:21;7.90;;;3.90;;
41683;SDS011;27369;52.030;4.586;2022-07-23T06:34:46;6.13;;;2.80;;
41683;SDS011;27369;52.030;4.586;2022-07-23T06:39:37;6.60;;;2.73;;
41683;SDS011;27369;52.030;4.586;2022-07-23T06:44:28;4.10;;;2.20;;
41683;SDS011;27369;52.030;4.586;2022-07-23T06:49:19;4.23;;;2.37;;
41683;SDS011;27369;52.030;4.586;2022-07-23T06:51:44;5.23;;;2.20;;
41683;SDS011;27369;52.030;4.586;2022-07-23T06:56:35;6.77;;;2.87;;
41683;SDS011;27369;52.030;4.586;2022-07-23T07:01:26;4.57;;;2.97;;
41683;SDS011;27369;52.030;4.586;2022-07-23T07:06:16;5.40;;;2.53;;
41683;SDS011;27369;52.030;4.586;2022-07-23T07:11:08;6.38;;;2.10;;
41683;SDS011;27369;52.030;4.586;2022-07-23T07:13:34;6.60;;;2.20;;
41683;SDS011;27369;52.030;4.586;2022-07-23T07:16:00;3.93;;;1.70;;
41683;SDS011;27369;52.030;4.586;2022-07-23T07:18:25;2.80;;;1.30;;
41683;SDS011;27369;52.030;4.586;2022-07-23T07:20:51;1.87;;;1.40;;
41683;SDS011;27369;52.030;4.586;2022-07-23T07:23:16;2.30;;;1.40;;
41683;SDS011;27369;52.030;4.586;2022-07-23T07:28:07;3.23;;;1.90;;
41683;SDS011;27369;52.030;4.586;2022-07-23T07:32:58;4.60;;;2.10;;
41683;SDS011;27369;52.030;4.586;2022-07-23T07:37:49;2.17;;;1.77;;
41683;SDS011;27369;52.030;4.586;2022-07-23T07:42:49;3.27;;;1.50;;
41683;SDS011;27369;52.030;4.586;2022-07-23T07:45:16;3.63;;;1.23;;
41683;SDS011;27369;52.030;4.586;2022-07-23T07:50:07;3.53;;;1.63;;
41683;SDS011;27369;52.030;4.586;2022-07-23T07:52:34;3.63;;;1.58;;
41683;SDS011;27369;52.030;4.586;2022-07-23T07:55:02;3.58;;;1.55;;
41683;SDS011;27369;52.030;4.586;2022-07-23T07:57:30;3.45;;;2.13;;
41683;SDS011;27369;52.030;4.586;2022-07-23T08:02:21;4.27;;;1.63;;
41683;SDS011;27369;52.030;4.586;2022-07-23T08:07:12;2.43;;;1.13;;
41683;SDS011;27369;52.030;4.586;2022-07-23T08:12:03;5.07;;;1.07;;
41683;SDS011;27369;52.030;4.586;2022-07-23T08:16:54;3.95;;;1.35;;
41683;SDS011;27369;52.030;4.586;2022-07-23T08:19:19;3.60;;;1.37;;
41683;SDS011;27369;52.030;4.586;2022-07-23T08:24:10;2.60;;;0.80;;
41683;SDS011;27369;52.030;4.586;2022-07-23T08:26:35;2.43;;;1.10;;
41683;SDS011;27369;52.030;4.586;2022-07-23T08:29:00;3.40;;;1.20;;
41683;SDS011;27369;52.030;4.586;2022-07-23T08:33:51;5.00;;;1.57;;
41683;SDS011;27369;52.030;4.586;2022-07-23T08:38:42;2.60;;;1.13;;
41683;SDS011;27369;52.030;4.586;2022-07-23T08:41:08;2.60;;;0.97;;
41683;SDS011;27369;52.030;4.586;2022-07-23T08:43:34;3.80;;;1.40;;
41683;SDS011;27369;52.030;4.586;2022-07-23T08:46:01;4.55;;;1.60;;
41683;SDS011;27369;52.030;4.586;2022-07-23T08:48:28;3.25;;;1.77;;
41683;SDS011;27369;52.030;4.586;2022-07-23T08:50:59;3.40;;;1.30;;
41683;SDS011;27369;52.030;4.586;2022-07-23T08:53:27;4.65;;;1.80;;
41683;SDS011;27369;52.030;4.586;2022-07-23T08:55:54;4.80;;;1.90;;
41683;SDS011;27369;52.030;4.586;2022-07-23T08:58:21;4.70;;;1.90;;
41683;SDS011;27369;52.030;4.586;2022-07-23T09:00:48;3.88;;;1.70;;
41683;SDS011;27369;52.030;4.586;2022-07-23T09:03:24;4.47;;;1.40;;
41683;SDS011;27369;52.030;4.586;2022-07-23T09:05:53;3.20;;;1.17;;
41683;SDS011;27369;52.030;4.586;2022-07-23T09:08:24;3.47;;;1.30;;
41683;SDS011;27369;52.030;4.586;2022-07-23T09:10:58;4.18;;;1.52;;
41683;SDS011;27369;52.030;4.586;2022-07-23T09:13:26;2.50;;;1.27;;
41683;SDS011;27369;52.030;4.586;2022-07-23T09:16:28;4.43;;;1.40;;
41683;SDS011;27369;52.030;4.586;2022-07-23T09:19:01;3.33;;;1.58;;
41683;SDS011;27369;52.030;4.586;2022-07-23T09:21:31;3.50;;;1.27;;
41683;SDS011;27369;52.030;4.586;2022-07-23T09:26:39;3.97;;;1.38;;
41683;SDS011;27369;52.030;4.586;2022-07-23T09:29:09;2.03;;;1.30;;
41683;SDS011;27369;52.030;4.586;2022-07-23T09:34:12;3.30;;;1.50;;
41683;SDS011;27369;52.030;4.586;2022-07-23T09:36:38;5.25;;;1.77;;
41683;SDS011;27369;52.030;4.586;2022-07-23T09:39:04;4.23;;;1.40;;
41683;SDS011;27369;52.030;4.586;2022-07-23T09:41:39;3.97;;;1.70;;
41683;SDS011;27369;52.030;4.586;2022-07-23T09:44:08;2.72;;;1.33;;
41683;SDS011;27369;52.030;4.586;2022-07-23T09:46:38;5.57;;;1.70;;
41683;SDS011;27369;52.030;4.586;2022-07-23T09:49:17;4.30;;;1.70;;
41683;SDS011;27369;52.030;4.586;2022-07-23T09:51:45;3.13;;;1.30;;
41683;SDS011;27369;52.030;4.586;2022-07-23T09:54:20;4.03;;;1.30;;
41683;SDS011;27369;52.030;4.586;2022-07-23T09:56:51;3.83;;;1.90;;
41683;SDS011;27369;52.030;4.586;2022-07-23T09:59:18;5.07;;;1.70;;
41683;SDS011;27369;52.030;4.586;2022-07-23T10:01:50;4.40;;;1.60;;
41683;SDS011;27369;52.030;4.586;2022-07-23T10:04:16;2.97;;;1.50;;
41683;SDS011;27369;52.030;4.586;2022-07-23T10:06:43;3.40;;;1.80;;
41683;SDS011;27369;52.030;4.586;2022-07-23T10:09:10;3.63;;;1.77;;
41683;SDS011;27369;52.030;4.586;2022-07-23T10:11:37;3.70;;;1.83;;
41683;SDS011;27369;52.030;4.586;2022-07-23T10:14:03;3.92;;;1.42;;
41683;SDS011;27369;52.030;4.586;2022-07-23T10:16:30;5.40;;;2.05;;
41683;SDS011;27369;52.030;4.586;2022-07-23T10:18:56;5.83;;;2.13;;
41683;SDS011;27369;52.030;4.586;2022-07-23T10:21:24;3.43;;;1.80;;
41683;SDS011;27369;52.030;4.586;2022-07-23T10:27:22;4.22;;;2.25;;
41683;SDS011;27369;52.030;4.586;2022-07-23T10:36:18;5.07;;;3.83;;
41683;SDS011;27369;52.030;4.586;2022-07-23T10:41:34;4.40;;;2.37;;
41683;SDS011;27369;52.030;4.586;2022-07-23T10:44:06;3.90;;;2.30;;
41683;SDS011;27369;52.030;4.586;2022-07-23T10:47:01;4.13;;;2.20;;
41683;SDS011;27369;52.030;4.586;2022-07-23T10:49:34;2.70;;;2.20;;
41683;SDS011;27369;52.030;4.586;2022-07-23T10:57:46;4.30;;;2.33;;
41683;SDS011;27369;52.030;4.586;2022-07-23T11:00:16;3.77;;;2.00;;
41683;SDS011;27369;52.030;4.586;2022-07-23T11:02:46;2.77;;;2.50;;
41683;SDS011;27369;52.030;4.586;2022-07-23T11:05:14;4.60;;;2.43;;
41683;SDS011;27369;52.030;4.586;2022-07-23T11:32:11;5.30;;;2.50;;
41683;SDS011;27369;52.030;4.586;2022-07-23T11:34:43;2.83;;;2.17;;
41683;SDS011;27369;52.030;4.586;2022-07-23T11:39:59;2.77;;;1.87;;
41683;SDS011;27369;52.030;4.586;2022-07-23T11:42:26;4.40;;;1.80;;
41683;SDS011;27369;52.030;4.586;2022-07-23T11:44:51;3.27;;;1.50;;
41683;SDS011;27369;52.030;4.586;2022-07-23T11:47:21;2.63;;;1.40;;
41683;SDS011;27369;52.030;4.586;2022-07-23T11:49:54;6.13;;;1.87;;
41683;SDS011;27369;52.030;4.586;2022-07-23T11:52:21;2.70;;;1.50;;
41683;SDS011;27369;52.030;4.586;2022-07-23T11:57:17;2.97;;;1.50;;
41683;SDS011;27369;52.030;4.586;2022-07-23T11:59:43;3.50;;;1.30;;
41683;SDS011;27369;52.030;4.586;2022-07-23T12:02:11;2.30;;;1.40;;
41683;SDS011;27369;52.030;4.586;2022-07-23T12:04:40;3.43;;;1.37;;
41683;SDS011;27369;52.030;4.586;2022-07-23T12:09:49;3.10;;;1.50;;
41683;SDS011;27369;52.030;4.586;2022-07-23T12:12:15;2.67;;;1.47;;
41683;SDS011;27369;52.030;4.586;2022-07-23T12:14:54;4.10;;;1.70;;
41683;SDS011;27369;52.030;4.586;2022-07-23T12:17:24;3.07;;;1.67;;
41683;SDS011;27369;52.030;4.586;2022-07-23T12:19:54;3.03;;;1.90;;
41683;SDS011;27369;52.030;4.586;2022-07-23T12:22:23;3.93;;;1.50;;
41683;SDS011;27369;52.030;4.586;2022-07-23T12:24:56;3.13;;;1.30;;
41683;SDS011;27369;52.030;4.586;2022-07-23T12:29:51;2.90;;;1.37;;
41683;SDS011;27369;52.030;4.586;2022-07-23T12:32:17;5.83;;;1.90;;
41683;SDS011;27369;52.030;4.586;2022-07-23T12:34:51;1.97;;;1.20;;
41683;SDS011;27369;52.030;4.586;2022-07-23T12:37:35;3.93;;;1.40;;
41683;SDS011;27369;52.030;4.586;2022-07-23T12:42:51;3.23;;;1.57;;
41683;SDS011;27369;52.030;4.586;2022-07-23T12:45:19;5.53;;;1.67;;
41683;SDS011;27369;52.030;4.586;2022-07-23T12:50:37;2.73;;;1.90;;
41683;SDS011;27369;52.030;4.586;2022-07-23T12:53:15;3.07;;;1.93;;
41683;SDS011;27369;52.030;4.586;2022-07-23T12:55:43;5.23;;;2.30;;
41683;SDS011;27369;52.030;4.586;2022-07-23T12:58:14;2.63;;;2.10;;
41683;SDS011;27369;52.030;4.586;2022-07-23T13:05:53;3.93;;;1.97;;
41683;SDS011;27369;52.030;4.586;2022-07-23T13:08:20;2.97;;;2.13;;
41683;SDS011;27369;52.030;4.586;2022-07-23T13:10:46;2.80;;;1.90;;
41683;SDS011;27369;52.030;4.586;2022-07-23T13:13:13;2.17;;;1.70;;
41683;SDS011;27369;52.030;4.586;2022-07-23T13:15:46;3.37;;;1.77;;
41683;SDS011;27369;52.030;4.586;2022-07-23T13:18:12;3.27;;;2.00;;
41683;SDS011;27369;52.030;4.586;2022-07-23T13:20:37;4.33;;;2.27;;
41683;SDS011;27369;52.030;4.586;2022-07-23T13:23:04;6.03;;;2.10;;
41683;SDS011;27369;52.030;4.586;2022-07-23T13:25:31;2.60;;;1.80;;
41683;SDS011;27369;52.030;4.586;2022-07-23T13:27:56;4.13;;;2.27;;
41683;SDS011;27369;52.030;4.586;2022-07-23T13:30:22;7.23;;;2.83;;
41683;SDS011;27369;52.030;4.586;2022-07-23T13:32:48;5.47;;;2.50;;
41683;SDS011;27369;52.030;4.586;2022-07-23T13:35:13;4.80;;;2.40;;
41683;SDS011;27369;52.030;4.586;2022-07-23T13:37:39;2.90;;;2.57;;
41683;SDS011;27369;52.030;4.586;2022-07-23T13:40:04;5.07;;;2.57;;
41683;SDS011;27369;52.030;4.586;2022-07-23T13:42:30;5.30;;;2.60;;
41683;SDS011;27369;52.030;4.586;2022-07-23T13:44:56;3.40;;;2.13;;
41683;SDS011;27369;52.030;4.586;2022-07-23T13:47:21;2.47;;;2.27;;
41683;SDS011;27369;52.030;4.586;2022-07-23T13:49:47;6.00;;;2.20;;
41683;SDS011;27369;52.030;4.586;2022-07-23T13:52:12;4.60;;;2.13;;
41683;SDS011;27369;52.030;4.586;2022-07-23T13:54:37;3.23;;;2.43;;
41683;SDS011;27369;52.030;4.586;2022-07-23T13:57:03;3.40;;;2.20;;
41683;SDS011;27369;52.030;4.586;2022-07-23T13:59:29;4.27;;;2.07;;
41683;SDS011;27369;52.030;4.586;2022-07-23T14:01:54;2.97;;;2.00;;
41683;SDS011;27369;52.030;4.586;2022-07-23T14:04:20;3.57;;;2.33;;
41683;SDS011;27369;52.030;4.586;2022-07-23T14:06:46;3.87;;;2.57;;
41683;SDS011;27369;52.030;4.586;2022-07-23T14:09:11;3.60;;;2.50;;
41683;SDS011;27369;52.030;4.586;2022-07-23T14:11:37;3.87;;;1.70;;
41683;SDS011;27369;52.030;4.586;2022-07-23T14:14:03;2.50;;;2.30;;
41683;SDS011;27369;52.030;4.586;2022-07-23T14:16:29;3.23;;;2.00;;
41683;SDS011;27369;52.030;4.586;2022-07-23T14:18:54;3.23;;;1.93;;
41683;SDS011;27369;52.030;4.586;2022-07-23T14:21:20;4.57;;;1.80;;
41683;SDS011;27369;52.030;4.586;2022-07-23T14:23:45;5.27;;;2.10;;
41683;SDS011;27369;52.030;4.586;2022-07-23T14:26:11;5.70;;;2.23;;
41683;SDS011;27369;52.030;4.586;2022-07-23T14:28:36;3.23;;;1.90;;
41683;SDS011;27369;52.030;4.586;2022-07-23T14:31:01;3.40;;;2.13;;
41683;SDS011;27369;52.030;4.586;2022-07-23T14:33:27;2.30;;;2.00;;
41683;SDS011;27369;52.030;4.586;2022-07-23T14:35:52;3.30;;;2.10;;
41683;SDS011;27369;52.030;4.586;2022-07-23T14:38:18;4.40;;;2.40;;
41683;SDS011;27369;52.030;4.586;2022-07-23T14:40:43;3.47;;;2.70;;
41683;SDS011;27369;52.030;4.586;2022-07-23T14:43:09;4.00;;;2.00;;
41683;SDS011;27369;52.030;4.586;2022-07-23T14:45:34;4.47;;;2.27;;
41683;SDS011;27369;52.030;4.586;2022-07-23T14:47:59;2.73;;;2.00;;
41683;SDS011;27369;52.030;4.586;2022-07-23T14:50:27;5.47;;;2.10;;
41683;SDS011;27369;52.030;4.586;2022-07-23T14:52:52;3.73;;;1.73;;
41683;SDS011;27369;52.030;4.586;2022-07-23T14:55:18;3.70;;;1.90;;
41683;SDS011;27369;52.030;4.586;2022-07-23T14:57:44;5.07;;;1.90;;
41683;SDS011;27369;52.030;4.586;2022-07-23T15:00:09;3.63;;;2.00;;
41683;SDS011;27369;52.030;4.586;2022-07-23T15:02:35;2.93;;;1.80;;
41683;SDS011;27369;52.030;4.586;2022-07-23T15:05:00;3.50;;;1.50;;
41683;SDS011;27369;52.030;4.586;2022-07-23T15:07:26;6.37;;;2.00;;
41683;SDS011;27369;52.030;4.586;2022-07-23T15:09:52;3.20;;;2.37;;
41683;SDS011;27369;52.030;4.586;2022-07-23T15:12:18;5.93;;;2.77;;
41683;SDS011;27369;52.030;4.586;2022-07-23T15:14:43;5.30;;;2.90;;
41683;SDS011;27369;52.030;4.586;2022-07-23T15:17:09;4.57;;;2.37;;
41683;SDS011;27369;52.030;4.586;2022-07-23T15:19:34;5.33;;;2.20;;
41683;SDS011;27369;52.030;4.586;2022-07-23T15:22:00;3.90;;;2.40;;
41683;SDS011;27369;52.030;4.586;2022-07-23T15:24:25;5.00;;;2.57;;
41683;SDS011;27369;52.030;4.586;2022-07-23T15:26:51;4.57;;;2.20;;
41683;SDS011;27369;52.030;4.586;2022-07-23T15:29:16;11.87;;;3.27;;
41683;SDS011;27369;52.030;4.586;2022-07-23T15:31:41;6.03;;;2.77;;
41683;SDS011;27369;52.030;4.586;2022-07-23T15:34:07;5.97;;;2.93;;
41683;SDS011;27369;52.030;4.586;2022-07-23T15:36:32;3.27;;;2.30;;
41683;SDS011;27369;52.030;4.586;2022-07-23T15:38:58;3.23;;;1.90;;
41683;SDS011;27369;52.030;4.586;2022-07-23T15:41:23;6.17;;;1.93;;
41683;SDS011;27369;52.030;4.586;2022-07-23T15:43:49;6.20;;;2.03;;
41683;SDS011;27369;52.030;4.586;2022-07-23T15:46:16;6.70;;;2.47;;
41683;SDS011;27369;52.030;4.586;2022-07-23T15:48:43;4.50;;;2.30;;
41683;SDS011;27369;52.030;4.586;2022-07-23T15:51:10;5.23;;;2.03;;
41683;SDS011;27369;52.030;4.586;2022-07-23T15:53:35;6.30;;;2.70;;
41683;SDS011;27369;52.030;4.586;2022-07-23T15:56:01;5.13;;;2.20;;
41683;SDS011;27369;52.030;4.586;2022-07-23T15:58:27;4.27;;;2.13;;
41683;SDS011;27369;52.030;4.586;2022-07-23T16:00:54;4.27;;;2.37;;
41683;SDS011;27369;52.030;4.586;2022-07-23T16:03:20;6.90;;;2.70;;
41683;SDS011;27369;52.030;4.586;2022-07-23T16:05:45;4.50;;;2.57;;
41683;SDS011;27369;52.030;4.586;2022-07-23T16:08:11;5.43;;;2.80;;
41683;SDS011;27369;52.030;4.586;2022-07-23T16:10:36;3.73;;;2.30;;
41683;SDS011;27369;52.030;4.586;2022-07-23T16:13:02;4.43;;;2.33;;
41683;SDS011;27369;52.030;4.586;2022-07-23T16:15:27;4.47;;;1.93;;
41683;SDS011;27369;52.030;4.586;2022-07-23T16:17:53;4.17;;;2.27;;
41683;SDS011;27369;52.030;4.586;2022-07-23T16:20:22;4.87;;;2.40;;
41683;SDS011;27369;52.030;4.586;2022-07-23T16:22:48;3.23;;;1.90;;
41683;SDS011;27369;52.030;4.586;2022-07-23T16:25:13;5.83;;;2.10;;
41683;SDS011;27369;52.030;4.586;2022-07-23T16:27:39;6.43;;;2.23;;
41683;SDS011;27369;52.030;4.586;2022-07-23T16:30:06;4.30;;;2.30;;
41683;SDS011;27369;52.030;4.586;2022-07-23T16:32:33;5.40;;;2.70;;
41683;SDS011;27369;52.030;4.586;2022-07-23T16:34:58;5.10;;;2.77;;
41683;SDS011;27369;52.030;4.586;2022-07-23T16:37:24;12.83;;;6.10;;
41683;SDS011;27369;52.030;4.586;2022-07-23T16:39:49;6.60;;;3.53;;